Time;durP1;ratioP1;P1;durP2;ratioP2;P2;SDS_P1;SDS_P2;PMS_P1;PMS_P2;Temp;Humidity;BMP_temperature;BMP_pressure;BME280_temperature;BME280_humidity;BME280_pressure;Samples;Min_cycle;Max_cycle;Signal;HPM_P1;HPM_P2
2023/10/17 00:02:11;;;;;;;6.97;6.37;;;4.20;99.90;;;;;;8348465;28;20271;-59
2023/10/17 00:06:16;;;;;;;8.03;6.50;;;4.10;99.90;;;;;;8405128;28;20185;-59
2023/10/17 00:10:18;;;;;;;7.57;6.60;;;4.00;99.90;;;;;;8420794;27;20572;-60
2023/10/17 00:14:23;;;;;;;8.47;6.00;;;3.90;99.90;;;;;;8407365;28;20168;-66
2023/10/17 00:18:25;;;;;;;9.43;6.87;;;3.90;99.90;;;;;;8407245;28;20192;-64
2023/10/17 00:22:26;;;;;;;8.83;6.40;;;3.80;99.90;;;;;;8410160;28;20189;-65
2023/10/17 00:26:26;;;;;;;7.73;6.17;;;3.80;99.90;;;;;;8412488;28;20222;-66
2023/10/17 00:30:30;;;;;;;7.90;6.33;;;3.70;99.90;;;;;;8411251;28;20208;-65
2023/10/17 00:34:34;;;;;;;7.23;5.93;;;3.60;99.90;;;;;;8411314;28;20179;-66
2023/10/17 00:38:36;;;;;;;6.93;5.67;;;3.50;99.90;;;;;;8406845;28;20176;-66
2023/10/17 00:42:41;;;;;;;7.17;5.47;;;3.40;99.90;;;;;;8408337;28;20188;-64
2023/10/17 00:46:42;;;;;;;6.03;5.03;;;3.20;99.90;;;;;;8409710;28;20287;-66
2023/10/17 00:50:48;;;;;;;17.47;10.77;;;3.10;99.90;;;;;;8409648;28;20201;-64
2023/10/17 00:54:53;;;;;;;18.20;12.13;;;3.10;99.90;;;;;;8409199;28;20196;-63
2023/10/17 00:58:57;;;;;;;21.23;12.50;;;3.00;99.90;;;;;;8406925;28;20260;-65
2023/10/17 01:03:02;;;;;;;23.07;11.57;;;2.90;99.90;;;;;;8406374;28;20182;-65
2023/10/17 01:07:10;;;;;;;17.43;9.57;;;2.80;99.90;;;;;;8408062;28;20187;-64
2023/10/17 01:11:20;;;;;;;9.67;6.57;;;2.70;99.90;;;;;;8409131;28;20220;-64
2023/10/17 01:15:27;;;;;;;7.90;5.77;;;2.60;99.90;;;;;;8410232;28;20171;-63
2023/10/17 01:19:28;;;;;;;7.60;4.90;;;2.50;99.90;;;;;;8408528;28;20180;-65
2023/10/17 01:23:29;;;;;;;6.40;5.20;;;2.40;99.90;;;;;;8408238;28;20266;-63
2023/10/17 01:27:31;;;;;;;5.27;4.77;;;2.30;99.90;;;;;;8406173;28;20436;-65
2023/10/17 01:31:38;;;;;;;6.93;5.23;;;2.20;99.90;;;;;;8406150;28;20301;-65
2023/10/17 01:35:44;;;;;;;5.70;4.83;;;2.20;99.90;;;;;;8406909;28;20188;-63
2023/10/17 01:39:44;;;;;;;8.07;5.93;;;2.20;99.90;;;;;;8400772;28;20195;-63
2023/10/17 01:43:50;;;;;;;6.33;5.67;;;2.20;99.90;;;;;;8406124;28;20490;-64
2023/10/17 01:47:51;;;;;;;5.67;4.93;;;2.30;99.90;;;;;;8404703;28;20625;-64
2023/10/17 01:51:52;;;;;;;5.73;4.83;;;2.30;99.90;;;;;;8405974;28;20200;-65
2023/10/17 01:56:09;;;;;;;6.13;5.20;;;2.30;99.90;;;;;;8405233;28;20185;-64
2023/10/17 02:00:23;;;;;;;8.63;5.27;;;2.30;99.90;;;;;;8406013;28;20320;-63
2023/10/17 02:04:24;;;;;;;6.93;5.60;;;2.40;99.90;;;;;;8407465;28;20223;-65
2023/10/17 02:08:26;;;;;;;8.37;5.80;;;2.30;99.90;;;;;;8403087;28;20235;-65
2023/10/17 02:12:28;;;;;;;22.70;14.20;;;2.40;99.90;;;;;;8394933;28;20190;-66
2023/10/17 02:16:32;;;;;;;22.23;12.50;;;2.40;99.90;;;;;;8405002;28;20184;-66
2023/10/17 02:20:35;;;;;;;12.60;8.63;;;2.40;99.90;;;;;;8403266;28;20224;-64
2023/10/17 02:24:37;;;;;;;8.53;6.43;;;2.40;99.90;;;;;;8402947;28;20270;-66
2023/10/17 02:28:47;;;;;;;9.33;7.00;;;2.40;99.90;;;;;;8401690;28;20244;-66
2023/10/17 02:32:53;;;;;;;7.70;6.10;;;2.40;99.90;;;;;;8399336;28;20185;-66
2023/10/17 02:36:54;;;;;;;8.43;6.63;;;2.40;99.90;;;;;;8401845;28;20185;-66
2023/10/17 02:40:55;;;;;;;7.63;5.83;;;2.50;99.90;;;;;;8399469;28;20192;-64
2023/10/17 02:44:55;;;;;;;6.53;5.87;;;2.50;99.90;;;;;;8388303;28;20252;-62
2023/10/17 02:48:57;;;;;;;6.93;6.07;;;2.50;99.90;;;;;;8399016;28;20205;-61
2023/10/17 02:52:59;;;;;;;6.87;5.00;;;2.60;99.90;;;;;;8400929;28;20401;-61
2023/10/17 02:56:59;;;;;;;9.10;6.67;;;2.60;99.90;;;;;;8396426;28;20197;-63
2023/10/17 03:01:00;;;;;;;5.80;5.17;;;2.60;99.90;;;;;;8397217;28;20211;-62
2023/10/17 03:05:11;;;;;;;7.57;6.30;;;2.70;99.90;;;;;;8422147;28;20186;-61
2023/10/17 03:13:24;;;;;;;5.73;5.13;;;2.80;99.90;;;;;;8398840;28;20192;-61
2023/10/17 03:17:25;;;;;;;6.87;6.10;;;2.80;99.90;;;;;;8397355;28;20217;-63
2023/10/17 03:21:34;;;;;;;6.73;5.53;;;2.90;99.90;;;;;;8398762;28;20207;-62
2023/10/17 03:25:39;;;;;;;6.73;5.80;;;2.90;99.90;;;;;;8398779;28;20189;-63
2023/10/17 03:29:45;;;;;;;6.63;5.50;;;3.00;99.90;;;;;;8404157;28;20259;-61
2023/10/17 03:33:50;;;;;;;8.07;6.07;;;3.00;99.90;;;;;;8406696;28;20217;-60
2023/10/17 03:37:54;;;;;;;6.47;5.73;;;3.00;99.90;;;;;;8404677;28;20241;-63
2023/10/17 03:41:58;;;;;;;7.47;6.20;;;3.10;99.90;;;;;;8406448;28;20191;-61
2023/10/17 03:46:03;;;;;;;7.53;6.53;;;3.10;99.90;;;;;;8406996;28;20197;-60
2023/10/17 03:50:08;;;;;;;7.47;6.27;;;3.20;99.90;;;;;;8400697;28;20217;-62
2023/10/17 03:54:10;;;;;;;8.73;6.70;;;3.20;99.90;;;;;;8402413;28;20203;-64
2023/10/17 04:02:24;;;;;;;7.13;5.63;;;3.30;99.90;;;;;;8404196;28;20303;-67
2023/10/17 04:06:43;;;;;;;8.97;6.77;;;3.30;99.90;;;;;;8405406;28;20201;-64
2023/10/17 04:11:07;;;;;;;7.63;6.13;;;3.30;99.90;;;;;;8404708;28;20277;-67
2023/10/17 04:15:09;;;;;;;6.50;5.80;;;3.30;99.90;;;;;;8408020;28;20223;-67
2023/10/17 04:19:20;;;;;;;7.07;6.37;;;3.40;99.90;;;;;;8407168;28;20197;-65
2023/10/17 04:23:26;;;;;;;7.13;6.07;;;3.40;99.90;;;;;;8408123;28;20243;-65
2023/10/17 04:27:34;;;;;;;7.03;6.13;;;3.40;99.90;;;;;;8402161;28;20280;-65
2023/10/17 04:31:36;;;;;;;9.17;6.97;;;3.50;99.90;;;;;;8405002;28;20215;-67
2023/10/17 04:35:43;;;;;;;10.33;8.80;;;3.50;99.90;;;;;;8410680;28;20195;-65
2023/10/17 04:39:56;;;;;;;29.07;16.13;;;3.60;99.90;;;;;;8404551;28;20453;-63
2023/10/17 04:44:03;;;;;;;23.00;14.10;;;3.70;99.90;;;;;;8406234;28;20190;-65
2023/10/17 04:48:11;;;;;;;22.17;16.27;;;3.60;99.90;;;;;;8403534;28;20214;-64
2023/10/17 04:56:59;;;;;;;29.83;21.57;;;3.60;99.90;;;;;;8404338;28;20219;-66
2023/10/17 05:05:39;;;;;;;27.83;22.43;;;3.50;99.90;;;;;;8406055;28;20249;-65
2023/10/17 06:18:49;;;;;;;19.00;13.43;;;3.70;99.90;;;;;;8401019;28;20328;-62
2023/10/17 06:28:13;;;;;;;24.27;18.23;;;3.90;99.90;;;;;;8399334;28;20541;-62
2023/10/17 06:31:42;;;;;;;23.63;17.23;;;4.10;99.90;;;;;;8398783;28;20224;-64
2023/10/17 06:35:52;;;;;;;27.47;18.83;;;4.30;99.90;;;;;;8397490;28;20185;-64
2023/10/17 06:39:58;;;;;;;23.73;18.77;;;4.50;99.90;;;;;;8397414;28;20206;-64
2023/10/17 06:43:58;;;;;;;34.63;23.67;;;4.70;99.90;;;;;;8397596;28;20173;-64
2023/10/17 06:48:06;;;;;;;30.30;22.60;;;4.70;99.90;;;;;;8398933;28;20204;-65
2023/10/17 06:56:18;;;;;;;45.67;28.70;;;5.20;99.90;;;;;;8396756;28;20281;-64
2023/10/17 07:00:42;;;;;;;44.77;26.43;;;5.40;99.90;;;;;;8398780;28;20216;-65
2023/10/17 07:04:43;;;;;;;51.30;32.07;;;5.60;99.90;;;;;;8396936;28;20189;-63
2023/10/17 07:08:46;;;;;;;47.07;31.33;;;5.70;99.90;;;;;;8399290;28;20532;-64
2023/10/17 07:13:25;;;;;;;63.73;38.47;;;5.90;99.90;;;;;;8396714;28;20879;-64
2023/10/17 07:17:27;;;;;;;39.50;27.10;;;6.00;99.90;;;;;;8396913;28;20775;-64
2023/10/17 07:21:28;;;;;;;34.73;22.27;;;6.20;99.90;;;;;;8397468;28;20188;-63
2023/10/17 07:25:31;;;;;;;39.97;22.73;;;6.50;99.90;;;;;;8400121;28;20207;-64
2023/10/17 07:29:36;;;;;;;68.63;32.80;;;6.70;99.90;;;;;;8396935;28;20211;-64
2023/10/17 07:33:43;;;;;;;51.33;26.13;;;7.00;99.90;;;;;;8397418;28;20185;-63
2023/10/17 07:37:57;;;;;;;50.47;25.20;;;7.30;99.90;;;;;;8397701;28;20199;-63
2023/10/17 07:41:58;;;;;;;18.70;13.73;;;7.60;99.90;;;;;;8394901;28;20177;-63
2023/10/17 07:46:06;;;;;;;15.20;11.50;;;7.70;99.90;;;;;;8396157;28;20656;-63
2023/10/17 07:50:13;;;;;;;15.67;10.67;;;7.80;99.90;;;;;;8396073;28;20258;-65
2023/10/17 07:54:16;;;;;;;16.77;10.80;;;8.00;99.90;;;;;;8398322;28;20196;-67
2023/10/17 08:02:40;;;;;;;17.80;11.70;;;8.40;99.90;;;;;;8398327;28;20618;-67
2023/10/17 08:06:41;;;;;;;15.40;9.40;;;8.60;99.90;;;;;;8397555;28;20200;-67
2023/10/17 08:10:45;;;;;;;8.63;7.43;;;8.90;99.90;;;;;;8398456;28;20216;-67
2023/10/17 08:14:52;;;;;;;8.73;7.30;;;9.00;99.90;;;;;;8395815;28;20188;-66
2023/10/17 08:19:12;;;;;;;10.53;7.27;;;9.10;99.90;;;;;;8405668;28;20663;-67
2023/10/17 08:23:13;;;;;;;8.73;6.97;;;9.30;99.90;;;;;;8401326;28;20455;-68
2023/10/17 08:31:23;;;;;;;7.60;5.40;;;9.70;99.90;;;;;;8402739;28;20249;-65
2023/10/17 08:35:36;;;;;;;5.50;4.80;;;9.90;99.90;;;;;;8404195;28;20179;-65
2023/10/17 08:43:38;;;;;;;6.90;5.27;;;10.30;99.90;;;;;;8402665;28;20199;-66
2023/10/17 08:47:43;;;;;;;4.93;4.47;;;10.60;99.90;;;;;;8402776;28;20517;-66
2023/10/17 08:51:43;;;;;;;4.60;4.17;;;10.80;99.90;;;;;;8401287;28;20324;-63
2023/10/17 08:55:44;;;;;;;5.57;4.00;;;10.90;1.00;;;;;;8401860;28;20187;-65
2023/10/17 09:00:13;;;;;;;5.27;4.03;;;11.10;1.00;;;;;;8400214;28;20243;-64
2023/10/17 09:04:09;;;;;;;8.43;5.53;;;11.20;99.90;;;;;;8402905;28;20189;-63
2023/10/17 09:08:11;;;;;;;10.03;6.30;;;11.30;27.90;;;;;;8392332;28;20573;-63
2023/10/17 09:12:19;;;;;;;9.23;6.40;;;11.40;1.00;;;;;;8401535;28;20185;-63
2023/10/17 09:16:20;;;;;;;7.23;4.40;;;11.40;1.00;;;;;;8397824;28;20211;-63
2023/10/17 09:20:41;;;;;;;10.87;6.13;;;11.50;1.00;;;;;;8400853;28;20196;-63
2023/10/17 09:24:49;;;;;;;6.80;4.53;;;11.80;1.00;;;;;;8399350;28;20192;-64
2023/10/17 09:29:00;;;;;;;8.47;5.77;;;11.90;1.00;;;;;;8398731;28;20224;-61
2023/10/17 09:33:02;;;;;;;6.50;4.63;;;12.00;1.00;;;;;;8398926;28;20185;-62
2023/10/17 09:37:05;;;;;;;5.60;4.60;;;12.00;1.00;;;;;;8404239;28;20214;-63
2023/10/17 09:41:05;;;;;;;8.60;6.13;;;12.10;1.00;;;;;;8400166;28;20176;-62
2023/10/17 09:45:10;;;;;;;7.17;5.50;;;12.30;1.00;;;;;;8401553;28;20192;-62
2023/10/17 09:49:11;;;;;;;4.80;4.23;;;12.40;1.00;;;;;;8398797;28;20208;-62
2023/10/17 09:53:18;;;;;;;4.10;3.63;;;12.50;1.00;;;;;;8400708;28;20311;-64
2023/10/17 09:57:21;;;;;;;6.47;4.00;;;12.50;1.00;;;;;;8398388;28;20198;-64
2023/10/17 10:01:26;;;;;;;4.77;3.97;;;12.70;1.00;;;;;;8397865;28;20208;-66
2023/10/17 10:05:28;;;;;;;5.10;4.03;;;12.70;1.00;;;;;;8398187;28;20199;-66
2023/10/17 10:09:36;;;;;;;4.97;3.20;;;12.80;1.00;;;;;;8402517;28;20206;-66
2023/10/17 10:14:13;;;;;;;4.80;3.87;;;13.00;1.00;;;;;;8399328;28;20180;-66
2023/10/17 10:18:14;;;;;;;5.87;3.93;;;13.30;1.00;;;;;;8400399;28;20207;-65
2023/10/17 10:22:16;;;;;;;4.37;3.90;;;13.30;1.00;;;;;;8400654;28;20188;-66
2023/10/17 10:26:19;;;;;;;5.10;4.30;;;13.20;1.00;;;;;;8398898;28;20189;-66
2023/10/17 10:30:43;;;;;;;5.73;3.47;;;13.00;1.00;;;;;;8400218;28;20269;-67
2023/10/17 10:34:45;;;;;;;3.70;3.30;;;13.20;1.00;;;;;;8398927;28;20721;-66
2023/10/17 10:38:46;;;;;;;5.03;3.73;;;13.50;1.00;;;;;;8400048;28;20223;-67
2023/10/17 10:42:59;;;;;;;4.70;2.97;;;13.70;1.00;;;;;;8397432;28;20460;-69
2023/10/17 10:47:00;;;;;;;3.13;2.67;;;13.80;1.00;;;;;;8398437;28;20215;-67
2023/10/17 10:51:02;;;;;;;5.13;3.00;;;13.90;1.00;;;;;;8398144;28;20492;-66
2023/10/17 10:55:03;;;;;;;5.77;3.80;;;13.80;1.00;;;;;;8398655;28;20203;-67
2023/10/17 10:59:05;;;;;;;11.43;6.00;;;13.70;1.00;;;;;;8400514;28;20290;-67
2023/10/17 11:03:06;;;;;;;6.33;3.30;;;13.80;1.00;;;;;;8399131;28;20699;-67
2023/10/17 11:07:23;;;;;;;7.73;3.33;;;13.90;1.00;;;;;;8397287;28;20184;-68
2023/10/17 11:11:25;;;;;;;2.70;2.47;;;14.10;1.00;;;;;;8398993;28;20212;-63
2023/10/17 11:15:30;;;;;;;4.43;2.70;;;14.30;1.00;;;;;;8397327;28;20176;-66
2023/10/17 11:19:31;;;;;;;3.77;2.80;;;14.40;1.00;;;;;;8397108;28;20211;-61
2023/10/17 11:23:35;;;;;;;14.47;6.17;;;14.10;1.00;;;;;;8398460;28;20298;-63
2023/10/17 11:27:39;;;;;;;4.60;2.93;;;13.80;1.00;;;;;;8394872;28;20188;-61
2023/10/17 11:31:41;;;;;;;4.67;3.03;;;13.60;1.00;;;;;;8398788;28;20200;-61
2023/10/17 11:35:52;;;;;;;6.57;3.43;;;13.50;1.00;;;;;;8396265;28;20192;-62
2023/10/17 11:40:03;;;;;;;5.83;3.03;;;13.40;1.00;;;;;;8397918;28;20180;-61
2023/10/17 11:44:04;;;;;;;4.90;3.10;;;13.40;1.00;;;;;;8395936;28;20184;-62
2023/10/17 11:48:33;;;;;;;3.60;2.00;;;13.40;1.00;;;;;;8398785;28;20271;-63
2023/10/17 11:52:35;;;;;;;5.20;3.20;;;13.40;1.00;;;;;;8403393;28;20197;-63
2023/10/17 11:56:39;;;;;;;14.03;9.00;;;13.40;1.00;;;;;;8403272;28;20180;-62
2023/10/17 12:00:41;;;;;;;28.73;17.80;;;13.40;1.00;;;;;;8403696;28;20225;-63
2023/10/17 12:04:42;;;;;;;4.23;2.70;;;13.40;1.00;;;;;;8395513;28;20238;-62
2023/10/17 12:08:43;;;;;;;2.23;1.70;;;13.50;1.00;;;;;;8403431;28;20200;-62
2023/10/17 12:12:44;;;;;;;2.37;1.60;;;13.70;1.00;;;;;;8403098;28;20181;-63
2023/10/17 12:16:48;;;;;;;3.23;1.80;;;13.90;1.00;;;;;;8404682;28;20304;-62
2023/10/17 12:20:49;;;;;;;2.87;2.00;;;13.90;1.00;;;;;;8409157;28;20208;-63
2023/10/17 12:24:50;;;;;;;2.63;1.77;;;14.00;1.00;;;;;;8400496;28;20215;-61
2023/10/17 12:28:54;;;;;;;5.10;2.90;;;14.10;1.00;;;;;;8405734;28;20381;-62
2023/10/17 12:32:55;;;;;;;3.40;3.10;;;14.10;1.00;;;;;;8403260;28;20226;-61
2023/10/17 12:36:56;;;;;;;3.77;2.60;;;13.90;1.00;;;;;;8403344;28;20187;-62
2023/10/17 12:40:57;;;;;;;5.50;4.23;;;13.50;1.00;;;;;;8403987;28;20507;-63
2023/10/17 12:44:58;;;;;;;3.53;2.23;;;13.20;1.00;;;;;;8402130;28;20188;-64
2023/10/17 12:48:58;;;;;;;2.07;1.70;;;13.00;1.00;;;;;;8404738;28;20204;-64
2023/10/17 12:52:59;;;;;;;174.40;69.03;;;12.90;1.00;;;;;;8400143;28;20222;-63
2023/10/17 12:57:06;;;;;;;56.07;21.93;;;12.90;1.00;;;;;;8402750;28;20180;-63
2023/10/17 13:01:07;;;;;;;11.90;5.17;;;12.80;1.00;;;;;;8400872;28;20200;-65
2023/10/17 13:05:09;;;;;;;3.70;2.33;;;12.80;1.00;;;;;;8401071;28;20223;-64
2023/10/17 13:09:11;;;;;;;3.17;2.40;;;12.80;1.00;;;;;;8402153;28;20287;-64
2023/10/17 13:13:12;;;;;;;3.57;2.43;;;12.80;1.00;;;;;;8403146;28;20181;-62
2023/10/17 13:17:18;;;;;;;3.87;2.47;;;12.80;1.00;;;;;;8400585;28;20216;-61
2023/10/17 13:21:19;;;;;;;8.70;3.83;;;12.80;1.00;;;;;;8398070;28;20430;-62
2023/10/17 13:25:20;;;;;;;6.90;3.90;;;12.80;1.00;;;;;;8402416;28;20226;-61
2023/10/17 13:29:22;;;;;;;6.83;4.43;;;12.70;1.00;;;;;;8396672;28;20208;-61
2023/10/17 13:33:23;;;;;;;6.50;3.80;;;12.60;1.00;;;;;;8400064;28;20226;-65
2023/10/17 13:37:26;;;;;;;9.37;5.50;;;12.40;1.00;;;;;;8400447;28;20212;-63
2023/10/17 13:41:27;;;;;;;8.30;4.50;;;12.30;1.00;;;;;;8397901;28;20184;-65
2023/10/17 13:45:28;;;;;;;7.70;5.07;;;12.20;1.00;;;;;;8403722;28;20190;-65
2023/10/17 13:49:29;;;;;;;6.93;4.43;;;12.20;1.00;;;;;;8402493;28;20200;-64
2023/10/17 13:53:30;;;;;;;8.20;4.03;;;12.00;1.00;;;;;;8400248;28;20267;-65
2023/10/17 13:57:31;;;;;;;15.97;7.23;;;11.90;1.00;;;;;;8401535;28;20181;-65
2023/10/17 14:01:32;;;;;;;9.33;5.00;;;11.90;1.00;;;;;;8402207;28;20204;-64
2023/10/17 14:05:33;;;;;;;11.63;7.47;;;11.80;1.00;;;;;;8399858;28;20204;-65
2023/10/17 14:09:35;;;;;;;17.47;8.57;;;11.70;1.00;;;;;;8399261;28;20211;-65
2023/10/17 14:13:38;;;;;;;19.57;10.47;;;11.60;1.00;;;;;;8399662;28;20185;-65
2023/10/17 14:17:45;;;;;;;13.63;8.87;;;11.60;1.00;;;;;;8400035;28;20183;-65
2023/10/17 14:22:01;;;;;;;16.47;10.17;;;11.50;1.00;;;;;;8400038;28;20248;-65
2023/10/17 14:26:07;;;;;;;16.57;10.60;;;11.30;1.00;;;;;;8397402;28;20188;-65
2023/10/17 14:30:11;;;;;;;19.97;11.77;;;11.10;1.00;;;;;;8395810;28;20306;-65
2023/10/17 14:34:12;;;;;;;20.77;13.53;;;10.90;1.00;;;;;;8400135;28;20367;-65
2023/10/17 14:38:13;;;;;;;12.33;8.90;;;10.80;1.00;;;;;;8395826;28;20181;-65
2023/10/17 14:42:14;;;;;;;9.30;6.70;;;10.60;1.00;;;;;;8400592;28;20379;-66
2023/10/17 14:46:16;;;;;;;9.20;6.03;;;10.50;1.00;;;;;;8395961;28;20190;-65
2023/10/17 14:50:17;;;;;;;14.00;9.30;;;10.50;1.00;;;;;;8395726;28;20210;-67
2023/10/17 14:54:19;;;;;;;15.17;10.23;;;10.40;1.00;;;;;;8392097;28;20363;-66
2023/10/17 14:58:20;;;;;;;16.83;10.80;;;10.40;1.00;;;;;;8393633;28;20180;-66
2023/10/17 15:02:21;;;;;;;22.83;14.87;;;10.50;1.00;;;;;;8394187;28;20198;-66
2023/10/17 15:06:21;;;;;;;38.80;24.90;;;10.50;1.00;;;;;;8395361;28;20213;-65
2023/10/17 15:10:23;;;;;;;36.67;23.23;;;10.50;1.00;;;;;;8397154;28;20253;-66
2023/10/17 15:14:23;;;;;;;35.10;23.73;;;10.50;1.00;;;;;;8395845;28;20170;-66
2023/10/17 15:18:24;;;;;;;30.40;21.33;;;10.50;1.00;;;;;;8395640;28;20240;-67
2023/10/17 15:22:25;;;;;;;21.80;16.10;;;10.40;1.00;;;;;;8398504;28;20192;-66
2023/10/17 15:26:26;;;;;;;12.87;9.57;;;10.40;1.00;;;;;;8397938;28;20195;-66
2023/10/17 15:30:31;;;;;;;10.53;7.67;;;10.30;1.00;;;;;;8398348;28;20205;-65
2023/10/17 15:34:32;;;;;;;8.37;6.33;;;10.20;1.00;;;;;;8395779;28;20183;-65
2023/10/17 15:38:33;;;;;;;7.57;5.70;;;10.10;1.00;;;;;;8397138;28;20220;-65
2023/10/17 15:42:35;;;;;;;6.37;4.90;;;10.10;1.00;;;;;;8399574;28;20483;-66
2023/10/17 15:46:36;;;;;;;6.07;4.27;;;10.00;1.00;;;;;;8400392;28;20195;-67
2023/10/17 15:50:40;;;;;;;5.60;3.93;;;9.90;1.00;;;;;;8397557;28;20207;-67
2023/10/17 15:54:43;;;;;;;6.33;4.30;;;9.80;1.00;;;;;;8396368;28;20194;-66
2023/10/17 15:58:45;;;;;;;5.77;4.13;;;9.60;15.20;;;;;;8394457;28;20184;-66
2023/10/17 16:02:46;;;;;;;4.47;3.90;;;9.40;48.10;;;;;;8396870;28;20215;-62
2023/10/17 16:06:47;;;;;;;5.77;4.23;;;9.30;97.50;;;;;;8396561;28;20194;-64
2023/10/17 16:10:56;;;;;;;8.13;4.63;;;9.20;99.90;;;;;;8398938;28;20205;-66
2023/10/17 16:14:58;;;;;;;6.30;4.90;;;9.00;99.90;;;;;;8395199;28;20234;-66
2023/10/17 16:19:00;;;;;;;6.73;4.97;;;8.80;99.90;;;;;;8398991;28;20284;-64
2023/10/17 16:23:02;;;;;;;6.30;5.13;;;8.80;99.90;;;;;;8402282;28;20185;-66
2023/10/17 16:27:03;;;;;;;7.60;5.37;;;8.70;99.90;;;;;;8392574;28;20285;-68
2023/10/17 16:31:07;;;;;;;7.63;5.57;;;8.60;99.90;;;;;;8401020;28;20222;-67
2023/10/17 16:35:08;;;;;;;6.77;5.67;;;8.50;99.90;;;;;;8399653;28;20188;-68
2023/10/17 16:39:08;;;;;;;5.73;5.10;;;8.40;99.90;;;;;;8405951;28;20271;-66
2023/10/17 16:43:10;;;;;;;8.47;4.33;;;8.30;1.00;;;;;;8404765;28;20176;-66
2023/10/17 16:47:11;;;;;;;6.10;3.87;;;8.20;1.00;;;;;;8408764;28;20181;-66
2023/10/17 16:51:16;;;;;;;5.73;4.13;;;8.10;1.00;;;;;;8406339;28;20212;-65
2023/10/17 16:55:19;;;;;;;4.47;4.03;;;8.10;1.00;;;;;;8405645;28;20238;-65
2023/10/17 16:59:20;;;;;;;9.13;4.53;;;8.00;1.00;;;;;;8404611;28;20204;-66
2023/10/17 17:03:27;;;;;;;7.47;5.87;;;7.80;99.90;;;;;;8394736;28;20376;-67
2023/10/17 17:07:27;;;;;;;6.53;5.60;;;7.60;99.90;;;;;;8404328;28;20181;-65
2023/10/17 17:11:28;;;;;;;6.97;5.67;;;7.50;93.10;;;;;;8403017;28;20212;-65
2023/10/17 17:15:29;;;;;;;5.37;4.87;;;7.40;56.80;;;;;;8403712;28;20240;-66
2023/10/17 17:19:32;;;;;;;5.80;4.83;;;7.40;98.60;;;;;;8402689;28;20277;-67
2023/10/17 17:23:34;;;;;;;6.63;5.17;;;7.30;99.90;;;;;;8403943;28;20192;-67
2023/10/17 17:27:35;;;;;;;6.67;4.80;;;7.30;99.90;;;;;;8396937;28;20193;-68
2023/10/17 17:31:36;;;;;;;7.13;5.50;;;7.30;99.90;;;;;;8399813;28;20627;-62
2023/10/17 17:35:37;;;;;;;6.27;4.60;;;7.30;99.90;;;;;;8403311;28;20287;-60
2023/10/17 17:39:38;;;;;;;7.00;5.30;;;7.20;99.90;;;;;;8402360;28;20692;-61
2023/10/17 17:43:40;;;;;;;5.80;4.80;;;7.20;99.90;;;;;;8400814;28;20184;-64
2023/10/17 17:47:41;;;;;;;6.17;4.43;;;7.10;99.90;;;;;;8403506;28;20315;-66
2023/10/17 17:51:42;;;;;;;6.40;5.13;;;7.00;99.90;;;;;;8403733;28;20208;-67
2023/10/17 17:55:48;;;;;;;8.50;6.13;;;7.00;1.00;;;;;;8404561;28;20187;-65
2023/10/17 17:59:49;;;;;;;7.90;5.80;;;7.00;1.00;;;;;;8404077;28;20231;-65
2023/10/17 18:03:51;;;;;;;6.90;5.10;;;6.90;1.00;;;;;;8405350;28;20180;-66
2023/10/17 18:07:53;;;;;;;7.73;5.87;;;6.90;1.00;;;;;;8405918;28;20185;-66
2023/10/17 18:11:54;;;;;;;6.93;4.97;;;6.80;1.00;;;;;;8403443;28;20330;-66
2023/10/17 18:15:56;;;;;;;5.53;4.37;;;6.80;44.00;;;;;;8399017;28;20682;-66
2023/10/17 18:19:58;;;;;;;6.33;4.63;;;6.80;51.70;;;;;;8397585;28;20185;-65
2023/10/17 18:24:01;;;;;;;6.37;4.93;;;6.70;99.90;;;;;;8418672;27;20196;-67
2023/10/17 18:28:03;;;;;;;12.03;7.27;;;6.70;99.90;;;;;;8402299;28;20189;-66
2023/10/17 18:32:05;;;;;;;24.47;13.93;;;6.60;99.90;;;;;;8401425;28;20293;-67
2023/10/17 18:36:08;;;;;;;11.13;7.53;;;6.60;99.90;;;;;;8400496;28;20184;-66
2023/10/17 18:40:11;;;;;;;19.87;11.23;;;6.50;99.90;;;;;;8402422;28;20500;-66
2023/10/17 18:44:12;;;;;;;128.50;61.17;;;6.50;99.90;;;;;;8399493;28;20449;-66
2023/10/17 18:48:12;;;;;;;101.67;51.40;;;6.50;99.90;;;;;;8401766;28;20188;-66
2023/10/17 18:52:13;;;;;;;52.30;27.00;;;6.40;1.00;;;;;;8400079;28;20215;-65
2023/10/17 18:56:14;;;;;;;12.57;8.40;;;6.20;99.90;;;;;;8398638;28;20195;-66
2023/10/17 19:00:17;;;;;;;12.50;8.80;;;6.00;89.80;;;;;;8401676;28;20220;-67
2023/10/17 19:04:18;;;;;;;12.00;8.47;;;5.80;99.90;;;;;;8407587;28;20275;-60
2023/10/17 19:08:22;;;;;;;9.20;7.80;;;5.70;1.00;;;;;;8399642;28;20192;-61
2023/10/17 19:12:23;;;;;;;9.83;7.60;;;5.70;65.80;;;;;;8398080;28;20270;-60
2023/10/17 19:16:25;;;;;;;11.07;8.20;;;5.70;99.90;;;;;;8398032;28;20181;-62
2023/10/17 19:20:26;;;;;;;10.20;7.10;;;5.70;99.90;;;;;;8403725;28;20502;-63
2023/10/17 19:24:27;;;;;;;9.57;6.53;;;5.60;46.30;;;;;;8396643;28;20193;-60
2023/10/17 19:28:28;;;;;;;8.80;7.30;;;5.50;1.00;;;;;;8398509;28;20192;-59
2023/10/17 19:32:29;;;;;;;48.97;30.53;;;5.40;1.00;;;;;;8412060;28;20191;-59
2023/10/17 19:36:30;;;;;;;47.47;31.47;;;5.40;2.00;;;;;;8398395;28;20200;-60
2023/10/17 19:40:31;;;;;;;63.67;35.63;;;5.40;99.90;;;;;;8397973;28;20256;-62
2023/10/17 19:44:33;;;;;;;36.40;22.00;;;5.40;99.90;;;;;;8399464;28;20207;-62
2023/10/17 19:48:34;;;;;;;18.63;12.97;;;5.30;99.90;;;;;;8396894;28;20180;-61
2023/10/17 19:52:35;;;;;;;26.27;17.27;;;5.20;99.90;;;;;;8397711;28;20192;-61
2023/10/17 19:56:35;;;;;;;27.40;16.23;;;5.10;99.90;;;;;;8400270;28;20250;-62
2023/10/17 20:00:36;;;;;;;38.17;24.50;;;5.10;99.90;;;;;;8397810;28;20248;-60
2023/10/17 20:04:37;;;;;;;43.23;27.97;;;5.10;99.90;;;;;;8400452;28;20183;-61
2023/10/17 20:08:38;;;;;;;30.60;21.37;;;5.10;99.90;;;;;;8397725;28;20311;-60
2023/10/17 20:12:40;;;;;;;22.57;14.90;;;4.90;99.90;;;;;;8400049;28;20234;-61
2023/10/17 20:16:41;;;;;;;14.37;9.97;;;4.80;99.90;;;;;;8402585;28;20180;-61
2023/10/17 20:20:43;;;;;;;11.37;8.67;;;4.60;99.90;;;;;;8407584;28;20184;-60
2023/10/17 20:24:44;;;;;;;12.50;8.43;;;4.40;99.90;;;;;;8402120;28;20504;-61
2023/10/17 20:28:45;;;;;;;10.60;8.00;;;4.30;99.90;;;;;;8405671;28;20205;-61
2023/10/17 20:32:46;;;;;;;10.40;7.73;;;4.20;99.90;;;;;;8402815;28;20268;-67
2023/10/17 20:36:48;;;;;;;9.63;8.13;;;4.20;99.90;;;;;;8401183;28;20183;-68
2023/10/17 20:40:49;;;;;;;12.50;8.33;;;4.10;99.90;;;;;;8406718;28;20204;-65
2023/10/17 20:44:50;;;;;;;11.03;8.63;;;4.00;99.90;;;;;;8406131;28;20246;-67
2023/10/17 20:48:52;;;;;;;18.03;12.60;;;3.90;99.90;;;;;;8403678;28;20259;-66
2023/10/17 20:52:53;;;;;;;20.60;13.73;;;3.80;99.90;;;;;;8406116;28;20193;-67
2023/10/17 20:56:55;;;;;;;19.50;11.90;;;3.70;99.90;;;;;;8408660;28;20188;-66
2023/10/17 21:00:56;;;;;;;21.23;13.13;;;3.50;99.90;;;;;;8411431;28;20261;-67
2023/10/17 21:04:57;;;;;;;16.80;11.23;;;3.40;99.90;;;;;;8401598;28;20226;-67
2023/10/17 21:08:58;;;;;;;10.43;8.30;;;3.20;99.90;;;;;;8406514;28;20679;-67
2023/10/17 21:13:00;;;;;;;10.43;8.30;;;3.10;99.90;;;;;;8406866;28;20277;-64
2023/10/17 21:17:00;;;;;;;10.83;7.90;;;2.90;99.90;;;;;;8397443;28;20188;-65
2023/10/17 21:21:02;;;;;;;11.33;8.97;;;2.80;99.90;;;;;;8410538;28;20299;-65
2023/10/17 21:25:04;;;;;;;13.63;9.37;;;2.70;99.90;;;;;;8406985;28;20228;-65
2023/10/17 21:29:04;;;;;;;13.30;9.20;;;2.60;99.90;;;;;;8407654;28;20246;-66
2023/10/17 21:33:06;;;;;;;13.93;10.30;;;2.50;99.90;;;;;;8405066;28;20191;-65
2023/10/17 21:37:07;;;;;;;15.73;10.33;;;2.50;99.90;;;;;;8407375;28;20185;-66
2023/10/17 21:41:09;;;;;;;18.47;11.87;;;2.30;99.90;;;;;;8407046;28;20188;-68
2023/10/17 21:45:11;;;;;;;15.17;10.30;;;2.30;99.90;;;;;;8403804;28;20194;-61
2023/10/17 21:49:12;;;;;;;18.20;11.37;;;2.20;99.90;;;;;;8402163;28;20206;-60
2023/10/17 21:53:13;;;;;;;14.40;11.00;;;2.10;99.90;;;;;;8401982;28;20263;-60
2023/10/17 21:57:14;;;;;;;15.10;10.03;;;2.00;99.90;;;;;;8402637;28;20183;-62
2023/10/17 22:01:19;;;;;;;14.63;9.27;;;1.90;99.90;;;;;;8404825;28;20237;-59
2023/10/17 22:05:21;;;;;;;16.50;10.50;;;1.90;99.90;;;;;;8402159;28;20181;-59
2023/10/17 22:09:22;;;;;;;16.37;9.83;;;1.80;99.90;;;;;;8401068;28;20403;-60
2023/10/17 22:13:23;;;;;;;15.93;10.37;;;1.70;99.90;;;;;;8395553;28;20188;-61
2023/10/17 22:17:24;;;;;;;16.60;9.73;;;1.60;99.90;;;;;;8402704;28;20257;-62
2023/10/17 22:21:27;;;;;;;14.63;9.47;;;1.60;99.90;;;;;;8400626;28;20172;-59
2023/10/17 22:25:28;;;;;;;15.47;9.43;;;1.50;99.90;;;;;;8403157;28;20185;-60
2023/10/17 22:29:28;;;;;;;15.83;9.73;;;1.40;99.90;;;;;;8399700;28;20204;-60
2023/10/17 22:33:29;;;;;;;12.20;8.90;;;1.40;99.90;;;;;;8397723;28;20209;-61
2023/10/17 22:37:30;;;;;;;11.37;8.13;;;1.30;99.90;;;;;;8398607;28;20188;-59
2023/10/17 22:41:31;;;;;;;13.10;8.80;;;1.20;99.90;;;;;;8400385;28;20180;-60
2023/10/17 22:45:32;;;;;;;14.20;8.80;;;1.10;99.90;;;;;;8398097;28;20184;-60
2023/10/17 22:49:32;;;;;;;12.87;9.07;;;1.00;99.90;;;;;;8400982;28;20201;-56
2023/10/17 22:53:33;;;;;;;11.93;8.67;;;0.90;99.90;;;;;;8400963;28;20196;-58
2023/10/17 22:57:34;;;;;;;12.47;8.23;;;0.80;99.90;;;;;;8400629;28;20177;-60
2023/10/17 23:01:35;;;;;;;13.73;7.97;;;0.80;99.90;;;;;;8401946;28;20207;-59